createdAt,value
2022-07-27T00:00:46.229Z,1.35
2022-07-27T00:03:12.926Z,1.13
2022-07-27T00:05:39.676Z,1.48
2022-07-27T00:08:06.501Z,1.30
2022-07-27T00:10:36.409Z,1.38
2022-07-27T00:13:03.630Z,1.27
2022-07-27T00:15:30.169Z,1.50
2022-07-27T00:17:58.288Z,1.38
2022-07-27T00:20:27.262Z,1.40
2022-07-27T00:22:54.239Z,1.27
2022-07-27T00:25:21.845Z,1.42
2022-07-27T00:27:48.294Z,1.60
2022-07-27T00:30:14.642Z,1.30
2022-07-27T00:32:40.915Z,1.55
2022-07-27T00:35:07.617Z,1.48
2022-07-27T00:37:34.069Z,1.88
2022-07-27T00:40:00.606Z,1.50
2022-07-27T00:42:28.100Z,1.17
2022-07-27T00:44:55.232Z,1.55
2022-07-27T00:47:22.092Z,1.17
2022-07-27T00:49:48.560Z,1.75
2022-07-27T00:52:15.288Z,1.25
2022-07-27T00:54:42.157Z,1.20
2022-07-27T00:57:10.403Z,1.42
2022-07-27T00:59:36.922Z,1.52
2022-07-27T01:02:03.829Z,1.23
2022-07-27T01:04:30.333Z,1.38
2022-07-27T01:06:56.685Z,1.20
2022-07-27T01:09:41.500Z,1.25
2022-07-27T01:12:13.461Z,1.23
2022-07-27T01:14:39.920Z,1.60
2022-07-27T01:17:07.454Z,1.15
2022-07-27T01:19:35.858Z,1.52
2022-07-27T01:22:02.766Z,1.10
2022-07-27T01:24:29.042Z,1.27
2022-07-27T01:26:56.026Z,1.15
2022-07-27T01:29:22.292Z,1.40
2022-07-27T01:31:48.630Z,1.67
2022-07-27T01:34:14.974Z,1.50
2022-07-27T01:36:41.289Z,1.30
2022-07-27T01:39:07.565Z,1.00
2022-07-27T01:41:33.863Z,1.42
2022-07-27T01:44:00.108Z,1.48
2022-07-27T01:46:26.744Z,1.60
2022-07-27T01:48:53.918Z,1.13
2022-07-27T01:51:20.229Z,1.13
2022-07-27T01:53:46.497Z,1.33
2022-07-27T01:56:13.034Z,1.30
2022-07-27T01:58:39.883Z,1.40
2022-07-27T02:01:06.620Z,1.30
2022-07-27T02:03:33.074Z,1.35
2022-07-27T02:05:59.367Z,1.20
2022-07-27T02:08:25.994Z,1.45
2022-07-27T02:11:11.163Z,1.33
2022-07-27T02:13:37.487Z,1.40
2022-07-27T02:16:03.807Z,1.42
2022-07-27T02:18:36.941Z,1.20
2022-07-27T02:21:04.620Z,0.95
2022-07-27T02:23:31.906Z,1.50
2022-07-27T02:25:58.504Z,1.63
2022-07-27T02:28:24.788Z,1.58
2022-07-27T02:30:51.065Z,1.25
2022-07-27T02:33:17.471Z,1.58
2022-07-27T02:35:43.838Z,1.73
2022-07-27T02:38:10.226Z,1.50
2022-07-27T02:40:36.764Z,1.35
2022-07-27T02:43:03.064Z,1.27
2022-07-27T02:45:29.340Z,1.00
2022-07-27T02:47:55.605Z,1.38
2022-07-27T02:50:22.240Z,1.23
2022-07-27T02:52:48.538Z,1.35
2022-07-27T02:55:15.072Z,1.27
2022-07-27T02:57:41.469Z,1.38
2022-07-27T03:00:09.707Z,1.08
2022-07-27T03:02:36.502Z,1.30
2022-07-27T03:05:03.941Z,1.20
2022-07-27T03:07:30.185Z,1.17
2022-07-27T03:09:56.474Z,1.50
2022-07-27T03:12:22.765Z,1.35
2022-07-27T03:14:49.230Z,1.35
2022-07-27T03:17:15.529Z,1.38
2022-07-27T03:19:41.791Z,1.30
2022-07-27T03:22:08.053Z,1.23
2022-07-27T03:24:34.720Z,1.70
2022-07-27T03:27:00.997Z,1.40
2022-07-27T03:29:29.421Z,1.10
2022-07-27T03:31:56.082Z,1.48
2022-07-27T03:34:22.346Z,1.33
2022-07-27T03:36:48.846Z,1.40
2022-07-27T03:39:15.357Z,1.50
2022-07-27T03:41:41.760Z,1.38
2022-07-27T03:44:08.079Z,1.50
2022-07-27T03:46:34.331Z,1.30
2022-07-27T03:49:00.718Z,1.70
2022-07-27T03:51:27.021Z,1.50
2022-07-27T03:53:53.341Z,1.33
2022-07-27T03:56:20.183Z,1.65
2022-07-27T03:58:46.449Z,1.70
2022-07-27T04:01:12.724Z,1.60
2022-07-27T04:03:44.119Z,1.88
2022-07-27T04:06:10.692Z,1.90
2022-07-27T04:08:37.015Z,1.80
2022-07-27T04:11:04.611Z,1.80
2022-07-27T04:13:33.873Z,1.80
2022-07-27T04:16:02.336Z,2.03
2022-07-27T04:18:28.683Z,1.85
2022-07-27T04:20:54.979Z,1.92
2022-07-27T04:23:21.293Z,2.45
2022-07-27T04:25:47.577Z,1.70
2022-07-27T04:28:13.904Z,1.90
2022-07-27T04:30:40.228Z,2.30
2022-07-27T04:33:06.549Z,2.70
2022-07-27T04:35:32.840Z,1.92
2022-07-27T04:37:59.926Z,2.00
2022-07-27T04:40:26.486Z,2.08
2022-07-27T04:42:52.761Z,2.25
2022-07-27T04:45:19.026Z,2.17
2022-07-27T04:47:45.288Z,2.50
2022-07-27T04:50:11.573Z,1.98
2022-07-27T04:52:37.840Z,2.10
2022-07-27T04:55:04.275Z,2.10
2022-07-27T04:57:31.861Z,2.20
2022-07-27T04:59:58.376Z,2.30
2022-07-27T05:02:26.377Z,2.30
2022-07-27T05:04:52.691Z,2.85
2022-07-27T05:07:19.046Z,2.42
2022-07-27T05:09:46.547Z,2.40
2022-07-27T05:12:12.893Z,2.63
2022-07-27T05:14:39.228Z,2.20
2022-07-27T05:17:06.281Z,2.33
2022-07-27T05:19:40.647Z,2.17
2022-07-27T05:22:07.445Z,2.25
2022-07-27T05:24:33.795Z,2.08
2022-07-27T05:27:00.090Z,2.38
2022-07-27T05:29:26.364Z,2.22
2022-07-27T05:31:52.749Z,2.17
2022-07-27T05:34:19.100Z,2.00
2022-07-27T05:36:45.384Z,2.42
2022-07-27T05:39:13.741Z,2.40
2022-07-27T05:41:40.430Z,2.58
2022-07-27T05:44:07.099Z,1.90
2022-07-27T05:46:33.523Z,2.15
2022-07-27T05:48:59.954Z,2.30
2022-07-27T05:51:26.368Z,2.58
2022-07-27T05:53:52.839Z,2.45
2022-07-27T05:56:19.149Z,2.63
2022-07-27T05:58:45.403Z,2.28
2022-07-27T06:01:11.752Z,2.78
2022-07-27T06:03:38.414Z,3.30
2022-07-27T06:06:23.201Z,2.10
2022-07-27T06:08:50.157Z,2.40
2022-07-27T06:11:16.529Z,2.22
2022-07-27T06:13:42.901Z,2.30
2022-07-27T06:16:09.710Z,2.38
2022-07-27T06:18:36.105Z,2.75
2022-07-27T06:21:02.531Z,2.13
2022-07-27T06:23:29.243Z,1.80
2022-07-27T06:25:55.963Z,2.63
2022-07-27T06:28:22.322Z,1.60
2022-07-27T06:30:48.676Z,2.30
2022-07-27T06:33:15.357Z,1.90
2022-07-27T06:35:42.910Z,2.00
2022-07-27T06:38:10.447Z,1.92
2022-07-27T06:40:36.755Z,2.17
2022-07-27T06:43:03.147Z,2.42
2022-07-27T06:45:29.528Z,1.67
2022-07-27T06:47:55.861Z,1.40
2022-07-27T06:50:22.136Z,1.90
2022-07-27T06:52:49.578Z,1.30
2022-07-27T06:55:16.058Z,1.55
2022-07-27T06:57:42.879Z,1.58
2022-07-27T07:00:09.797Z,1.10
2022-07-27T07:02:36.240Z,2.38
2022-07-27T07:05:02.690Z,1.50
2022-07-27T07:07:29.041Z,1.20
2022-07-27T07:09:55.343Z,1.52
2022-07-27T07:12:21.597Z,1.40
2022-07-27T07:14:47.916Z,1.30
2022-07-27T07:17:14.213Z,1.23
2022-07-27T07:19:40.488Z,1.65
2022-07-27T07:22:06.769Z,1.10
2022-07-27T07:24:33.152Z,1.30
2022-07-27T07:26:59.445Z,1.00
2022-07-27T07:29:25.714Z,1.48
2022-07-27T07:31:52.104Z,1.20
2022-07-27T07:34:18.525Z,1.13
2022-07-27T07:36:46.115Z,0.93
2022-07-27T07:39:12.716Z,1.02
2022-07-27T07:41:39.264Z,1.20
2022-07-27T07:44:06.529Z,1.40
2022-07-27T07:46:33.007Z,1.50
2022-07-27T07:48:59.374Z,1.10
2022-07-27T07:51:25.825Z,1.10
2022-07-27T07:53:52.175Z,1.17
2022-07-27T07:56:18.540Z,1.00
2022-07-27T07:58:44.803Z,1.00
2022-07-27T08:01:12.218Z,1.17
2022-07-27T08:03:38.480Z,1.10
2022-07-27T08:06:06.367Z,1.88
2022-07-27T08:08:33.037Z,1.23
2022-07-27T08:10:59.353Z,0.93
2022-07-27T08:13:25.700Z,1.00
2022-07-27T08:15:52.489Z,0.95
2022-07-27T08:18:19.150Z,0.93
2022-07-27T08:20:45.426Z,1.20
2022-07-27T08:23:13.114Z,1.00
2022-07-27T08:25:39.601Z,0.90
2022-07-27T08:28:05.915Z,0.73
2022-07-27T08:30:34.003Z,0.98
2022-07-27T08:33:01.529Z,0.68
2022-07-27T08:35:28.672Z,0.80
2022-07-27T08:37:55.331Z,0.98
2022-07-27T08:40:40.413Z,0.93
2022-07-27T08:43:09.122Z,1.05
2022-07-27T08:45:36.021Z,0.90
2022-07-27T08:48:03.067Z,0.68
2022-07-27T08:50:30.581Z,0.60
2022-07-27T08:53:00.019Z,0.82
2022-07-27T08:55:27.643Z,0.95
2022-07-27T08:57:57.759Z,0.75
2022-07-27T09:00:27.590Z,0.98
2022-07-27T09:02:55.733Z,0.93
2022-07-27T09:05:22.205Z,0.70
2022-07-27T09:07:48.988Z,0.73
2022-07-27T09:10:31.702Z,1.02
2022-07-27T09:12:57.990Z,0.82
2022-07-27T09:15:34.000Z,0.80
2022-07-27T09:18:00.935Z,1.17
2022-07-27T09:20:27.257Z,0.70
2022-07-27T09:22:54.579Z,0.73
2022-07-27T09:25:52.035Z,0.70
2022-07-27T09:28:11.459Z,0.85
2022-07-27T09:30:41.597Z,0.80
2022-07-27T09:33:07.942Z,1.02
2022-07-27T09:35:35.364Z,0.70
2022-07-27T09:38:20.695Z,1.02
2022-07-27T09:40:49.588Z,0.77
2022-07-27T09:44:27.493Z,0.80
2022-07-27T09:46:06.808Z,1.20
2022-07-27T09:48:34.473Z,1.00
2022-07-27T09:51:03.648Z,1.10
2022-07-27T09:53:46.410Z,1.13
2022-07-27T09:56:14.609Z,0.88
2022-07-27T09:58:41.319Z,0.90
2022-07-27T10:01:08.442Z,0.90
2022-07-27T10:03:35.062Z,1.08
2022-07-27T10:06:01.963Z,0.82
2022-07-27T10:08:28.527Z,1.20
2022-07-27T10:10:55.547Z,0.70
2022-07-27T10:13:22.661Z,0.98
2022-07-27T10:15:49.025Z,1.13
2022-07-27T10:18:19.252Z,1.55
2022-07-27T10:20:47.613Z,0.85
2022-07-27T10:23:27.290Z,1.02
2022-07-27T10:26:20.366Z,1.05
2022-07-27T10:28:50.774Z,1.08
2022-07-27T10:31:18.513Z,0.90
2022-07-27T10:33:46.414Z,0.90
2022-07-27T10:36:27.764Z,1.05
2022-07-27T10:38:58.119Z,1.50
2022-07-27T10:41:28.776Z,1.05
2022-07-27T10:44:14.595Z,0.82
2022-07-27T10:46:53.056Z,1.33
2022-07-27T10:49:20.451Z,1.65
2022-07-27T10:51:46.900Z,1.20
2022-07-27T10:54:20.513Z,1.10
2022-07-27T10:56:47.335Z,1.30
2022-07-27T10:59:13.669Z,1.50
2022-07-27T11:01:57.041Z,1.50
2022-07-27T11:04:23.777Z,1.58
2022-07-27T11:07:23.033Z,1.40
2022-07-27T11:12:28.960Z,1.38
2022-07-27T11:14:56.157Z,1.50
2022-07-27T11:17:52.066Z,1.20
2022-07-27T11:20:10.416Z,1.20
2022-07-27T11:25:27.015Z,1.13
2022-07-27T11:27:53.313Z,1.40
2022-07-27T11:30:27.058Z,1.60
2022-07-27T11:32:53.689Z,1.30
2022-07-27T11:35:20.543Z,1.20
2022-07-27T11:38:03.751Z,1.60
2022-07-27T11:41:07.184Z,1.50
2022-07-27T11:43:37.166Z,1.83
2022-07-27T11:46:14.178Z,1.85
2022-07-27T11:49:05.400Z,1.80
2022-07-27T11:51:32.885Z,1.98
2022-07-27T11:54:03.448Z,2.47
2022-07-27T11:56:32.199Z,2.00
2022-07-27T11:59:01.394Z,2.25
2022-07-27T12:01:29.122Z,2.55
2022-07-27T12:04:05.886Z,2.33
2022-07-27T12:06:33.372Z,2.40
2022-07-27T12:09:00.443Z,3.20
2022-07-27T12:11:34.216Z,2.97
2022-07-27T12:14:00.770Z,2.83
2022-07-27T12:16:27.163Z,2.58
2022-07-27T12:18:53.550Z,2.40
2022-07-27T12:21:20.041Z,2.33
2022-07-27T12:23:50.810Z,2.20
2022-07-27T12:26:20.313Z,2.05
2022-07-27T12:28:46.821Z,1.88
2022-07-27T12:31:17.433Z,1.92
2022-07-27T12:33:43.798Z,1.67
2022-07-27T12:36:10.468Z,1.75
2022-07-27T12:38:40.938Z,1.60
2022-07-27T12:41:07.534Z,1.57
2022-07-27T12:43:33.812Z,1.45
2022-07-27T12:46:10.130Z,1.50
2022-07-27T12:48:38.525Z,1.52
2022-07-27T12:51:06.860Z,1.67
2022-07-27T12:53:33.882Z,1.60
2022-07-27T12:56:01.938Z,1.55
2022-07-27T12:58:28.206Z,1.70
2022-07-27T13:00:54.988Z,1.30
2022-07-27T13:03:21.499Z,1.75
2022-07-27T13:05:47.852Z,2.30
2022-07-27T13:08:16.862Z,1.48
2022-07-27T13:10:44.339Z,1.80
2022-07-27T13:13:10.978Z,1.50
2022-07-27T13:15:37.581Z,1.88
2022-07-27T13:18:03.913Z,1.80
2022-07-27T13:20:30.212Z,2.00
2022-07-27T13:22:56.555Z,1.95
2022-07-27T13:25:22.856Z,1.75
2022-07-27T13:27:49.339Z,1.85
2022-07-27T13:30:16.491Z,1.70
2022-07-27T13:32:43.552Z,2.15
2022-07-27T13:35:12.207Z,1.92
2022-07-27T13:37:38.825Z,2.00
2022-07-27T13:40:05.482Z,1.90
2022-07-27T13:42:31.744Z,2.15
2022-07-27T13:45:08.674Z,2.20
2022-07-27T13:47:36.297Z,1.98
2022-07-27T13:50:03.476Z,2.00
2022-07-27T13:52:29.976Z,1.80
2022-07-27T13:54:56.326Z,1.95
2022-07-27T13:57:23.421Z,1.58
2022-07-27T13:59:49.744Z,1.73
2022-07-27T14:02:16.118Z,1.50
2022-07-27T14:04:47.658Z,1.35
2022-07-27T14:07:13.918Z,1.63
2022-07-27T14:09:58.910Z,1.60
2022-07-27T14:12:25.177Z,1.33
2022-07-27T14:14:51.582Z,1.60
2022-07-27T14:17:17.850Z,1.42
2022-07-27T14:19:44.113Z,1.50
2022-07-27T14:22:10.689Z,1.38
2022-07-27T14:24:38.247Z,1.45
2022-07-27T14:27:05.104Z,1.20
2022-07-27T14:29:31.410Z,1.30
2022-07-27T14:31:57.715Z,1.20
2022-07-27T14:34:24.033Z,1.20
2022-07-27T14:36:50.373Z,1.55
2022-07-27T14:39:16.756Z,3.10
2022-07-27T14:41:44.518Z,2.30
2022-07-27T14:44:10.884Z,2.17
2022-07-27T14:46:37.212Z,2.20
2022-07-27T14:49:06.209Z,2.05
2022-07-27T14:51:32.942Z,1.60
2022-07-27T14:53:59.308Z,1.35
2022-07-27T14:56:25.594Z,1.50
2022-07-27T14:58:51.873Z,1.50
2022-07-27T15:01:18.242Z,1.40
2022-07-27T15:03:44.864Z,1.23
2022-07-27T15:06:11.238Z,1.27
2022-07-27T15:08:37.509Z,1.38
2022-07-27T15:11:03.861Z,1.20
2022-07-27T15:13:30.210Z,1.35
2022-07-27T15:15:57.960Z,1.60
2022-07-27T15:18:24.442Z,1.60
2022-07-27T15:20:50.826Z,1.30
2022-07-27T15:23:17.079Z,1.50
2022-07-27T15:25:43.408Z,1.40
2022-07-27T15:28:10.594Z,1.33
2022-07-27T15:30:38.857Z,1.40
2022-07-27T15:33:05.675Z,1.63
2022-07-27T15:35:31.959Z,1.23
2022-07-27T15:37:58.272Z,1.48
2022-07-27T15:40:42.654Z,1.48
2022-07-27T15:43:13.149Z,1.40
2022-07-27T15:45:40.167Z,1.17
2022-07-27T15:48:08.303Z,1.38
2022-07-27T15:50:35.163Z,1.30
2022-07-27T15:53:01.634Z,1.08
2022-07-27T15:55:27.956Z,1.23
2022-07-27T15:57:54.223Z,1.05
2022-07-27T16:00:20.701Z,1.20
2022-07-27T16:02:47.010Z,1.25
2022-07-27T16:05:14.742Z,1.38
2022-07-27T16:07:41.801Z,1.67
2022-07-27T16:10:08.522Z,1.20
2022-07-27T16:12:38.089Z,1.50
2022-07-27T16:15:05.024Z,1.30
2022-07-27T16:17:31.377Z,1.20
2022-07-27T16:19:57.689Z,1.13
2022-07-27T16:22:24.846Z,1.15
2022-07-27T16:24:51.158Z,1.67
2022-07-27T16:27:17.431Z,1.42
2022-07-27T16:29:43.727Z,1.30
2022-07-27T16:32:12.104Z,1.13
2022-07-27T16:34:38.605Z,1.00
2022-07-27T16:37:04.905Z,1.15
2022-07-27T16:39:33.279Z,2.00
2022-07-27T16:41:59.681Z,1.73
2022-07-27T16:44:25.988Z,2.30
2022-07-27T16:46:52.316Z,2.40
2022-07-27T16:49:19.280Z,2.35
2022-07-27T16:51:45.670Z,2.60
2022-07-27T16:54:12.929Z,3.10
2022-07-27T16:56:39.189Z,3.60
2022-07-27T16:59:05.514Z,1.80
2022-07-27T17:01:32.238Z,2.00
2022-07-27T17:03:58.705Z,1.80
2022-07-27T17:06:26.144Z,1.63
2022-07-27T17:08:52.942Z,1.60
2022-07-27T17:11:21.505Z,1.65
2022-07-27T17:13:49.059Z,1.40
2022-07-27T17:16:16.175Z,1.63
2022-07-27T17:18:42.584Z,1.42
2022-07-27T17:21:13.182Z,1.08
2022-07-27T17:23:40.775Z,1.48
2022-07-27T17:26:07.630Z,1.55
2022-07-27T17:28:36.634Z,1.60
2022-07-27T17:31:03.632Z,1.50
2022-07-27T17:33:30.843Z,1.60
2022-07-27T17:35:57.463Z,1.33
2022-07-27T17:38:23.799Z,1.80
2022-07-27T17:40:50.249Z,1.77
2022-07-27T17:43:16.573Z,1.65
2022-07-27T17:45:42.869Z,1.77
2022-07-27T17:48:09.134Z,1.83
2022-07-27T17:50:35.409Z,1.52
2022-07-27T17:53:01.746Z,1.67
2022-07-27T17:55:28.282Z,1.67
2022-07-27T17:57:55.278Z,2.10
2022-07-27T18:00:21.681Z,2.03
2022-07-27T18:02:47.949Z,1.60
2022-07-27T18:05:14.502Z,1.50
2022-07-27T18:07:40.830Z,2.00
2022-07-27T18:10:07.966Z,1.70
2022-07-27T18:12:35.072Z,1.70
2022-07-27T18:15:20.119Z,1.73
2022-07-27T18:17:46.439Z,1.65
2022-07-27T18:20:12.781Z,1.40
2022-07-27T18:22:39.122Z,1.80
2022-07-27T18:25:06.645Z,1.60
2022-07-27T18:27:35.253Z,1.60
2022-07-27T18:30:02.559Z,1.65
2022-07-27T18:32:28.846Z,1.85
2022-07-27T18:34:55.631Z,1.75
2022-07-27T18:37:22.217Z,1.75
2022-07-27T18:39:48.468Z,2.08
2022-07-27T18:42:14.775Z,1.63
2022-07-27T18:44:41.156Z,2.10
2022-07-27T18:47:07.489Z,2.10
2022-07-27T18:49:33.864Z,2.13
2022-07-27T18:52:00.329Z,3.70
2022-07-27T18:54:26.628Z,2.40
2022-07-27T18:56:52.992Z,2.13
2022-07-27T18:59:19.278Z,2.33
2022-07-27T19:01:45.700Z,2.10
2022-07-27T19:04:12.352Z,2.10
2022-07-27T19:06:42.182Z,3.08
2022-07-27T19:09:10.142Z,2.30
2022-07-27T19:11:36.620Z,2.45
2022-07-27T19:14:03.359Z,3.75
2022-07-27T19:16:29.695Z,3.15
2022-07-27T19:18:56.113Z,2.00
2022-07-27T19:21:22.602Z,2.47
2022-07-27T19:23:48.913Z,2.00
2022-07-27T19:26:15.173Z,2.33
2022-07-27T19:28:41.791Z,2.30
2022-07-27T19:31:23.031Z,4.07
2022-07-27T19:33:50.926Z,2.78
2022-07-27T19:36:17.215Z,2.67
2022-07-27T19:38:43.466Z,2.58
2022-07-27T19:41:09.834Z,2.05
2022-07-27T19:43:36.097Z,2.20
2022-07-27T19:46:02.446Z,1.80
2022-07-27T19:48:28.924Z,1.92
2022-07-27T19:51:00.984Z,2.00
2022-07-27T19:53:31.189Z,2.97
2022-07-27T19:55:58.195Z,1.92
2022-07-27T19:58:24.530Z,1.77
2022-07-27T20:00:51.019Z,1.90
2022-07-27T20:03:17.978Z,1.60
2022-07-27T20:05:45.122Z,2.00
2022-07-27T20:08:11.466Z,1.48
2022-07-27T20:10:37.751Z,1.63
2022-07-27T20:13:04.907Z,1.50
2022-07-27T20:15:31.462Z,1.52
2022-07-27T20:17:58.304Z,1.70
2022-07-27T20:20:24.664Z,1.95
2022-07-27T20:22:51.478Z,1.50
2022-07-27T20:25:18.461Z,1.67
2022-07-27T20:27:45.925Z,1.60
2022-07-27T20:30:16.087Z,1.60
2022-07-27T20:32:42.860Z,2.95
2022-07-27T20:35:09.143Z,2.92
2022-07-27T20:37:35.425Z,3.78
2022-07-27T20:40:01.746Z,1.80
2022-07-27T20:42:28.155Z,1.98
2022-07-27T20:44:54.496Z,2.75
2022-07-27T20:47:20.880Z,4.07
2022-07-27T20:49:47.128Z,2.65
2022-07-27T20:52:13.398Z,2.33
2022-07-27T20:54:39.763Z,2.08
2022-07-27T20:57:06.177Z,2.42
2022-07-27T20:59:33.171Z,1.80
2022-07-27T21:02:01.483Z,1.70
2022-07-27T21:04:27.968Z,2.10
2022-07-27T21:06:54.219Z,1.90
2022-07-27T21:09:21.379Z,1.70
2022-07-27T21:11:48.836Z,1.60
2022-07-27T21:14:15.196Z,1.58
2022-07-27T21:16:41.565Z,1.65
2022-07-27T21:19:08.437Z,1.48
2022-07-27T21:21:34.697Z,1.50
2022-07-27T21:24:17.361Z,1.80
2022-07-27T21:26:44.862Z,1.52
2022-07-27T21:29:12.203Z,1.55
2022-07-27T21:31:39.094Z,1.90
2022-07-27T21:34:06.046Z,1.95
2022-07-27T21:36:33.770Z,1.80
2022-07-27T21:39:00.038Z,1.60
2022-07-27T21:41:26.314Z,1.50
2022-07-27T21:43:52.666Z,1.65
2022-07-27T21:46:19.115Z,1.90
2022-07-27T21:48:45.525Z,1.83
2022-07-27T21:51:11.935Z,1.83
2022-07-27T21:53:38.181Z,1.60
2022-07-27T21:56:05.704Z,1.67
2022-07-27T21:58:31.968Z,1.80
2022-07-27T22:00:58.436Z,2.30
2022-07-27T22:03:24.725Z,1.70
2022-07-27T22:05:51.575Z,1.67
2022-07-27T22:08:20.449Z,1.90
2022-07-27T22:10:46.725Z,1.85
2022-07-27T22:13:12.966Z,2.10
2022-07-27T22:15:39.274Z,1.65
2022-07-27T22:18:05.569Z,1.80
2022-07-27T22:20:31.882Z,1.60
2022-07-27T22:22:58.937Z,1.58
2022-07-27T22:25:25.229Z,1.52
2022-07-27T22:27:51.505Z,1.70
2022-07-27T22:30:17.816Z,1.50
2022-07-27T22:32:44.176Z,1.50
2022-07-27T22:35:10.964Z,1.40
2022-07-27T22:37:37.253Z,1.52
2022-07-27T22:40:03.990Z,1.65
2022-07-27T22:42:30.272Z,1.60
2022-07-27T22:44:56.573Z,1.50
2022-07-27T22:47:22.929Z,1.75
2022-07-27T22:49:49.415Z,1.60
2022-07-27T22:52:15.746Z,1.55
2022-07-27T22:54:42.034Z,1.70
2022-07-27T22:57:08.335Z,1.63
2022-07-27T22:59:35.084Z,1.88
2022-07-27T23:02:02.012Z,1.33
2022-07-27T23:04:28.283Z,1.23
2022-07-27T23:06:54.572Z,1.40
2022-07-27T23:09:21.277Z,1.50
2022-07-27T23:11:47.626Z,1.42
2022-07-27T23:14:14.274Z,1.50
2022-07-27T23:16:41.219Z,1.30
2022-07-27T23:19:07.723Z,1.63
2022-07-27T23:21:34.867Z,1.52
2022-07-27T23:24:09.633Z,1.65
2022-07-27T23:26:36.074Z,1.50
2022-07-27T23:29:02.474Z,1.30
2022-07-27T23:31:28.849Z,1.40
2022-07-27T23:33:55.243Z,1.55
2022-07-27T23:36:21.610Z,1.60
2022-07-27T23:38:47.891Z,1.42
2022-07-27T23:41:14.244Z,1.40
2022-07-27T23:43:40.491Z,1.40
2022-07-27T23:46:06.994Z,1.20
2022-07-27T23:48:33.415Z,1.20
2022-07-27T23:50:59.756Z,1.52
2022-07-27T23:53:27.061Z,1.45
2022-07-27T23:55:53.328Z,1.40
2022-07-27T23:58:19.677Z,1.60
